Terminal Aerodrome Forecast
Issued by NWS

Home | Current Version | Previous Version | Text Only | Print | Product List | Glossary Off
Versions: 1 2 3 4 5 6 7 8 9 10 11 12 13 14

000
FTUS43 KLSX 301720
TAFCPS
TAF
KCPS 301720Z 3018/3118 18006KT P6SM SCT050
     FM310000 VRB02KT P6SM SCT060
     FM311100 17007KT P6SM BKN040=

USA.gov is the U.S. government's official web portal to all federal, state and local government web resources and services.